sensor_id;sensor_type;location;lat;lon;timestamp;temperature;humidity
66019;HTU21D;52787;51.084;5.816;2023-04-12T00:01:48;11.40;76.53
66019;HTU21D;52787;51.084;5.816;2023-04-12T00:04:14;11.39;76.36
66019;HTU21D;52787;51.084;5.816;2023-04-12T00:06:42;11.33;76.17
66019;HTU21D;52787;51.084;5.816;2023-04-12T00:09:13;11.31;76.30
66019;HTU21D;52787;51.084;5.816;2023-04-12T00:11:42;11.30;76.18
66019;HTU21D;52787;51.084;5.816;2023-04-12T00:14:08;11.26;75.75
66019;HTU21D;52787;51.084;5.816;2023-04-12T00:16:34;11.19;76.19
66019;HTU21D;52787;51.084;5.816;2023-04-12T00:19:01;11.18;76.21
66019;HTU21D;52787;51.084;5.816;2023-04-12T00:21:28;11.17;76.39
66019;HTU21D;52787;51.084;5.816;2023-04-12T00:23:54;11.18;76.27
66019;HTU21D;52787;51.084;5.816;2023-04-12T00:26:21;11.14;75.82
66019;HTU21D;52787;51.084;5.816;2023-04-12T00:28:47;11.10;75.86
66019;HTU21D;52787;51.084;5.816;2023-04-12T00:31:13;11.10;75.99
66019;HTU21D;52787;51.084;5.816;2023-04-12T00:33:38;11.11;76.32
66019;HTU21D;52787;51.084;5.816;2023-04-12T00:36:04;11.14;76.15
66019;HTU21D;52787;51.084;5.816;2023-04-12T00:38:30;11.14;76.00
66019;HTU21D;52787;51.084;5.816;2023-04-12T00:40:56;11.12;75.50
66019;HTU21D;52787;51.084;5.816;2023-04-12T00:43:22;11.08;75.70
66019;HTU21D;52787;51.084;5.816;2023-04-12T00:45:53;11.05;75.59
66019;HTU21D;52787;51.084;5.816;2023-04-12T00:48:22;11.07;75.89
66019;HTU21D;52787;51.084;5.816;2023-04-12T00:50:48;11.04;75.51
66019;HTU21D;52787;51.084;5.816;2023-04-12T00:53:17;11.03;75.66
66019;HTU21D;52787;51.084;5.816;2023-04-12T00:55:44;11.05;75.76
66019;HTU21D;52787;51.084;5.816;2023-04-12T00:58:11;11.10;75.58
66019;HTU21D;52787;51.084;5.816;2023-04-12T01:00:38;11.13;74.99
66019;HTU21D;52787;51.084;5.816;2023-04-12T01:03:05;11.11;74.86
66019;HTU21D;52787;51.084;5.816;2023-04-12T01:05:46;11.12;74.87
66019;HTU21D;52787;51.084;5.816;2023-04-12T01:08:38;11.11;74.83
66019;HTU21D;52787;51.084;5.816;2023-04-12T01:11:18;11.10;74.89
66019;HTU21D;52787;51.084;5.816;2023-04-12T01:13:53;11.12;75.02
66019;HTU21D;52787;51.084;5.816;2023-04-12T01:16:43;11.12;74.54
66019;HTU21D;52787;51.084;5.816;2023-04-12T01:27:47;11.10;74.75
66019;HTU21D;52787;51.084;5.816;2023-04-12T01:30:16;11.09;74.76
66019;HTU21D;52787;51.084;5.816;2023-04-12T01:32:50;11.08;74.60
66019;HTU21D;52787;51.084;5.816;2023-04-12T01:35:25;11.07;74.60
66019;HTU21D;52787;51.084;5.816;2023-04-12T01:37:53;11.05;74.55
66019;HTU21D;52787;51.084;5.816;2023-04-12T01:40:19;11.05;74.75
66019;HTU21D;52787;51.084;5.816;2023-04-12T01:42:45;11.08;74.81
66019;HTU21D;52787;51.084;5.816;2023-04-12T01:45:11;11.10;74.94
66019;HTU21D;52787;51.084;5.816;2023-04-12T01:47:37;11.05;74.73
66019;HTU21D;52787;51.084;5.816;2023-04-12T01:50:24;11.03;75.12
66019;HTU21D;52787;51.084;5.816;2023-04-12T01:53:10;11.04;75.57
66019;HTU21D;52787;51.084;5.816;2023-04-12T01:55:40;11.03;75.37
66019;HTU21D;52787;51.084;5.816;2023-04-12T01:58:11;11.02;75.55
66019;HTU21D;52787;51.084;5.816;2023-04-12T02:00:42;11.00;75.60
66019;HTU21D;52787;51.084;5.816;2023-04-12T02:03:10;11.01;75.81
66019;HTU21D;52787;51.084;5.816;2023-04-12T02:05:37;11.03;75.99
66019;HTU21D;52787;51.084;5.816;2023-04-12T02:08:04;11.04;76.21
66019;HTU21D;52787;51.084;5.816;2023-04-12T02:10:31;11.08;76.22
66019;HTU21D;52787;51.084;5.816;2023-04-12T02:13:01;11.11;75.98
66019;HTU21D;52787;51.084;5.816;2023-04-12T02:15:28;11.05;76.35
66019;HTU21D;52787;51.084;5.816;2023-04-12T02:17:54;11.01;76.74
66019;HTU21D;52787;51.084;5.816;2023-04-12T02:20:21;11.00;76.84
66019;HTU21D;52787;51.084;5.816;2023-04-12T02:22:48;10.94;76.96
66019;HTU21D;52787;51.084;5.816;2023-04-12T02:25:14;10.92;77.37
66019;HTU21D;52787;51.084;5.816;2023-04-12T02:27:45;10.92;77.48
66019;HTU21D;52787;51.084;5.816;2023-04-12T02:30:12;10.93;77.69
66019;HTU21D;52787;51.084;5.816;2023-04-12T02:32:38;10.95;77.90
66019;HTU21D;52787;51.084;5.816;2023-04-12T02:35:12;10.99;77.72
66019;HTU21D;52787;51.084;5.816;2023-04-12T02:37:39;10.98;77.69
66019;HTU21D;52787;51.084;5.816;2023-04-12T02:40:05;10.97;77.69
66019;HTU21D;52787;51.084;5.816;2023-04-12T02:42:35;10.99;77.74
66019;HTU21D;52787;51.084;5.816;2023-04-12T02:45:01;11.00;77.56
66019;HTU21D;52787;51.084;5.816;2023-04-12T02:47:28;10.97;77.42
66019;HTU21D;52787;51.084;5.816;2023-04-12T02:49:55;10.93;77.47
66019;HTU21D;52787;51.084;5.816;2023-04-12T02:52:21;10.93;77.40
66019;HTU21D;52787;51.084;5.816;2023-04-12T02:54:50;10.92;77.53
66019;HTU21D;52787;51.084;5.816;2023-04-12T02:57:17;10.94;77.47
66019;HTU21D;52787;51.084;5.816;2023-04-12T02:59:42;10.95;77.23
66019;HTU21D;52787;51.084;5.816;2023-04-12T03:02:08;10.95;77.17
66019;HTU21D;52787;51.084;5.816;2023-04-12T03:04:34;10.94;76.95
66019;HTU21D;52787;51.084;5.816;2023-04-12T03:07:04;10.94;76.74
66019;HTU21D;52787;51.084;5.816;2023-04-12T03:09:31;10.94;76.73
66019;HTU21D;52787;51.084;5.816;2023-04-12T03:11:57;10.94;76.56
66019;HTU21D;52787;51.084;5.816;2023-04-12T03:14:23;10.89;76.40
66019;HTU21D;52787;51.084;5.816;2023-04-12T03:16:48;10.88;76.25
66019;HTU21D;52787;51.084;5.816;2023-04-12T03:19:16;10.84;76.57
66019;HTU21D;52787;51.084;5.816;2023-04-12T03:21:42;10.83;76.68
66019;HTU21D;52787;51.084;5.816;2023-04-12T03:24:09;10.79;77.02
66019;HTU21D;52787;51.084;5.816;2023-04-12T03:26:35;10.77;77.06
66019;HTU21D;52787;51.084;5.816;2023-04-12T03:29:02;10.77;77.40
66019;HTU21D;52787;51.084;5.816;2023-04-12T03:31:33;10.75;77.75
66019;HTU21D;52787;51.084;5.816;2023-04-12T03:34:00;10.73;77.75
66019;HTU21D;52787;51.084;5.816;2023-04-12T03:36:26;10.74;77.75
66019;HTU21D;52787;51.084;5.816;2023-04-12T03:38:52;10.78;78.08
66019;HTU21D;52787;51.084;5.816;2023-04-12T03:41:21;10.80;78.36
66019;HTU21D;52787;51.084;5.816;2023-04-12T03:43:48;10.79;78.50
66019;HTU21D;52787;51.084;5.816;2023-04-12T03:46:14;10.74;78.64
66019;HTU21D;52787;51.084;5.816;2023-04-12T03:48:40;10.74;78.66
66019;HTU21D;52787;51.084;5.816;2023-04-12T03:51:07;10.74;79.25
66019;HTU21D;52787;51.084;5.816;2023-04-12T03:53:37;10.75;79.45
66019;HTU21D;52787;51.084;5.816;2023-04-12T03:56:03;10.73;79.74
66019;HTU21D;52787;51.084;5.816;2023-04-12T03:58:30;10.68;79.74
66019;HTU21D;52787;51.084;5.816;2023-04-12T04:00:59;10.68;80.30
66019;HTU21D;52787;51.084;5.816;2023-04-12T04:03:28;10.67;80.66
66019;HTU21D;52787;51.084;5.816;2023-04-12T04:05:54;10.66;80.81
66019;HTU21D;52787;51.084;5.816;2023-04-12T04:08:20;10.68;81.09
66019;HTU21D;52787;51.084;5.816;2023-04-12T04:10:46;10.66;81.47
66019;HTU21D;52787;51.084;5.816;2023-04-12T04:13:12;10.65;81.36
66019;HTU21D;52787;51.084;5.816;2023-04-12T04:15:38;10.65;81.73
66019;HTU21D;52787;51.084;5.816;2023-04-12T04:18:03;10.63;82.01
66019;HTU21D;52787;51.084;5.816;2023-04-12T04:20:29;10.64;82.14
66019;HTU21D;52787;51.084;5.816;2023-04-12T04:22:56;10.64;82.49
66019;HTU21D;52787;51.084;5.816;2023-04-12T04:25:22;10.63;82.65
66019;HTU21D;52787;51.084;5.816;2023-04-12T04:27:54;10.58;82.68
66019;HTU21D;52787;51.084;5.816;2023-04-12T04:30:21;10.59;83.10
66019;HTU21D;52787;51.084;5.816;2023-04-12T04:32:47;10.58;83.03
66019;HTU21D;52787;51.084;5.816;2023-04-12T04:35:14;10.59;83.24
66019;HTU21D;52787;51.084;5.816;2023-04-12T04:37:41;10.60;83.34
66019;HTU21D;52787;51.084;5.816;2023-04-12T04:40:09;10.64;83.32
66019;HTU21D;52787;51.084;5.816;2023-04-12T04:42:38;10.68;83.39
66019;HTU21D;52787;51.084;5.816;2023-04-12T04:45:04;10.73;83.36
66019;HTU21D;52787;51.084;5.816;2023-04-12T04:47:38;10.75;83.29
66019;HTU21D;52787;51.084;5.816;2023-04-12T04:50:05;10.75;83.31
66019;HTU21D;52787;51.084;5.816;2023-04-12T04:52:31;10.72;83.48
66019;HTU21D;52787;51.084;5.816;2023-04-12T04:54:57;10.70;83.58
66019;HTU21D;52787;51.084;5.816;2023-04-12T04:57:23;10.68;83.70
66019;HTU21D;52787;51.084;5.816;2023-04-12T04:59:51;10.71;83.82
66019;HTU21D;52787;51.084;5.816;2023-04-12T05:02:16;10.75;84.06
66019;HTU21D;52787;51.084;5.816;2023-04-12T05:04:42;10.77;84.08
66019;HTU21D;52787;51.084;5.816;2023-04-12T05:07:08;10.79;84.00
66019;HTU21D;52787;51.084;5.816;2023-04-12T05:09:35;10.79;83.96
66019;HTU21D;52787;51.084;5.816;2023-04-12T05:12:00;10.82;84.19
66019;HTU21D;52787;51.084;5.816;2023-04-12T05:14:26;10.84;84.05
66019;HTU21D;52787;51.084;5.816;2023-04-12T05:16:52;10.82;84.19
66019;HTU21D;52787;51.084;5.816;2023-04-12T05:19:18;10.84;84.26
66019;HTU21D;52787;51.084;5.816;2023-04-12T05:21:44;10.84;84.26
66019;HTU21D;52787;51.084;5.816;2023-04-12T05:24:09;10.85;84.44
66019;HTU21D;52787;51.084;5.816;2023-04-12T05:26:36;10.89;84.55
66019;HTU21D;52787;51.084;5.816;2023-04-12T05:29:01;10.93;84.43
66019;HTU21D;52787;51.084;5.816;2023-04-12T05:31:27;10.92;84.11
66019;HTU21D;52787;51.084;5.816;2023-04-12T05:33:53;10.92;84.21
66019;HTU21D;52787;51.084;5.816;2023-04-12T05:36:19;10.92;84.23
66019;HTU21D;52787;51.084;5.816;2023-04-12T05:38:45;10.90;84.47
66019;HTU21D;52787;51.084;5.816;2023-04-12T05:41:11;10.87;84.49
66019;HTU21D;52787;51.084;5.816;2023-04-12T05:43:37;10.86;84.58
66019;HTU21D;52787;51.084;5.816;2023-04-12T05:46:05;10.86;84.61
66019;HTU21D;52787;51.084;5.816;2023-04-12T05:48:32;10.86;84.43
66019;HTU21D;52787;51.084;5.816;2023-04-12T05:50:58;10.90;84.51
66019;HTU21D;52787;51.084;5.816;2023-04-12T05:53:23;10.96;84.42
66019;HTU21D;52787;51.084;5.816;2023-04-12T05:55:49;10.97;84.35
66019;HTU21D;52787;51.084;5.816;2023-04-12T05:58:16;10.98;84.62
66019;HTU21D;52787;51.084;5.816;2023-04-12T06:00:42;10.98;84.65
66019;HTU21D;52787;51.084;5.816;2023-04-12T06:03:10;10.97;84.55
66019;HTU21D;52787;51.084;5.816;2023-04-12T06:05:36;10.98;84.73
66019;HTU21D;52787;51.084;5.816;2023-04-12T06:08:02;10.98;84.72
66019;HTU21D;52787;51.084;5.816;2023-04-12T06:10:30;10.99;84.64
66019;HTU21D;52787;51.084;5.816;2023-04-12T06:12:56;10.98;84.81
66019;HTU21D;52787;51.084;5.816;2023-04-12T06:15:22;11.01;84.81
66019;HTU21D;52787;51.084;5.816;2023-04-12T06:17:48;11.04;84.81
66019;HTU21D;52787;51.084;5.816;2023-04-12T06:20:15;11.07;84.86
66019;HTU21D;52787;51.084;5.816;2023-04-12T06:22:41;11.12;85.03
66019;HTU21D;52787;51.084;5.816;2023-04-12T06:25:07;11.13;85.02
66019;HTU21D;52787;51.084;5.816;2023-04-12T06:27:33;11.10;84.78
66019;HTU21D;52787;51.084;5.816;2023-04-12T06:29:59;11.10;84.69
66019;HTU21D;52787;51.084;5.816;2023-04-12T06:32:25;11.05;84.69
66019;HTU21D;52787;51.084;5.816;2023-04-12T06:34:51;11.03;84.70
66019;HTU21D;52787;51.084;5.816;2023-04-12T06:37:17;11.05;84.77
66019;HTU21D;52787;51.084;5.816;2023-04-12T06:39:43;11.10;84.74
66019;HTU21D;52787;51.084;5.816;2023-04-12T06:42:09;11.11;84.75
66019;HTU21D;52787;51.084;5.816;2023-04-12T06:44:34;11.09;84.82
66019;HTU21D;52787;51.084;5.816;2023-04-12T06:47:00;11.10;84.90
66019;HTU21D;52787;51.084;5.816;2023-04-12T06:49:26;11.10;85.02
66019;HTU21D;52787;51.084;5.816;2023-04-12T06:51:52;11.16;85.29
66019;HTU21D;52787;51.084;5.816;2023-04-12T06:54:17;11.25;85.03
66019;HTU21D;52787;51.084;5.816;2023-04-12T06:56:43;11.30;84.82
66019;HTU21D;52787;51.084;5.816;2023-04-12T06:59:09;11.34;84.42
66019;HTU21D;52787;51.084;5.816;2023-04-12T07:01:35;11.38;84.32
66019;HTU21D;52787;51.084;5.816;2023-04-12T07:04:00;11.42;84.31
66019;HTU21D;52787;51.084;5.816;2023-04-12T07:06:26;11.47;84.17
66019;HTU21D;52787;51.084;5.816;2023-04-12T07:08:52;11.51;84.13
66019;HTU21D;52787;51.084;5.816;2023-04-12T07:11:20;11.57;84.24
66019;HTU21D;52787;51.084;5.816;2023-04-12T07:13:47;11.60;83.94
66019;HTU21D;52787;51.084;5.816;2023-04-12T07:16:13;11.62;84.13
66019;HTU21D;52787;51.084;5.816;2023-04-12T07:18:38;11.64;84.26
66019;HTU21D;52787;51.084;5.816;2023-04-12T07:21:04;11.63;84.33
66019;HTU21D;52787;51.084;5.816;2023-04-12T07:23:31;11.66;84.35
66019;HTU21D;52787;51.084;5.816;2023-04-12T07:26:01;11.66;84.10
66019;HTU21D;52787;51.084;5.816;2023-04-12T07:28:27;11.66;84.29
66019;HTU21D;52787;51.084;5.816;2023-04-12T07:30:52;11.67;84.48
66019;HTU21D;52787;51.084;5.816;2023-04-12T07:33:18;11.70;84.57
66019;HTU21D;52787;51.084;5.816;2023-04-12T07:35:44;11.76;84.48
66019;HTU21D;52787;51.084;5.816;2023-04-12T07:38:10;11.77;84.43
66019;HTU21D;52787;51.084;5.816;2023-04-12T07:40:36;11.75;84.27
66019;HTU21D;52787;51.084;5.816;2023-04-12T07:43:02;11.67;84.74
66019;HTU21D;52787;51.084;5.816;2023-04-12T07:45:27;11.59;85.22
66019;HTU21D;52787;51.084;5.816;2023-04-12T07:47:53;11.54;85.64
66019;HTU21D;52787;51.084;5.816;2023-04-12T07:50:19;11.51;85.74
66019;HTU21D;52787;51.084;5.816;2023-04-12T07:52:45;11.47;86.08
66019;HTU21D;52787;51.084;5.816;2023-04-12T07:55:11;11.46;86.45
66019;HTU21D;52787;51.084;5.816;2023-04-12T07:57:36;11.49;86.74
66019;HTU21D;52787;51.084;5.816;2023-04-12T08:00:02;11.57;86.77
66019;HTU21D;52787;51.084;5.816;2023-04-12T08:02:30;11.62;86.54
66019;HTU21D;52787;51.084;5.816;2023-04-12T08:04:56;11.66;86.63
66019;HTU21D;52787;51.084;5.816;2023-04-12T08:07:21;11.64;86.75
66019;HTU21D;52787;51.084;5.816;2023-04-12T08:09:48;11.63;86.98
66019;HTU21D;52787;51.084;5.816;2023-04-12T08:12:15;11.55;87.29
66019;HTU21D;52787;51.084;5.816;2023-04-12T08:14:41;11.48;87.61
66019;HTU21D;52787;51.084;5.816;2023-04-12T08:17:07;11.49;87.22
66019;HTU21D;52787;51.084;5.816;2023-04-12T08:19:33;11.47;86.40
66019;HTU21D;52787;51.084;5.816;2023-04-12T08:21:59;11.53;85.81
66019;HTU21D;52787;51.084;5.816;2023-04-12T08:24:26;11.62;85.10
66019;HTU21D;52787;51.084;5.816;2023-04-12T08:26:51;11.79;84.23
66019;HTU21D;52787;51.084;5.816;2023-04-12T08:29:17;11.99;83.22
66019;HTU21D;52787;51.084;5.816;2023-04-12T08:31:44;12.19;82.09
66019;HTU21D;52787;51.084;5.816;2023-04-12T08:34:10;12.37;81.36
66019;HTU21D;52787;51.084;5.816;2023-04-12T08:36:36;12.53;80.96
66019;HTU21D;52787;51.084;5.816;2023-04-12T08:39:02;12.71;80.40
66019;HTU21D;52787;51.084;5.816;2023-04-12T08:41:28;12.81;79.95
66019;HTU21D;52787;51.084;5.816;2023-04-12T08:43:54;12.99;78.92
66019;HTU21D;52787;51.084;5.816;2023-04-12T08:46:21;13.08;78.30
66019;HTU21D;52787;51.084;5.816;2023-04-12T08:48:48;13.22;77.75
66019;HTU21D;52787;51.084;5.816;2023-04-12T08:51:19;13.32;76.86
66019;HTU21D;52787;51.084;5.816;2023-04-12T08:53:46;13.25;76.20
66019;HTU21D;52787;51.084;5.816;2023-04-12T08:56:13;13.19;76.64
66019;HTU21D;52787;51.084;5.816;2023-04-12T08:58:43;13.12;76.35
66019;HTU21D;52787;51.084;5.816;2023-04-12T09:01:12;13.02;76.17
66019;HTU21D;52787;51.084;5.816;2023-04-12T09:03:44;12.89;76.34
66019;HTU21D;52787;51.084;5.816;2023-04-12T09:06:12;12.80;77.12
66019;HTU21D;52787;51.084;5.816;2023-04-12T09:08:51;12.64;76.66
66019;HTU21D;52787;51.084;5.816;2023-04-12T09:11:28;12.60;78.04
66019;HTU21D;52787;51.084;5.816;2023-04-12T09:13:55;12.73;76.72
66019;HTU21D;52787;51.084;5.816;2023-04-12T09:19:03;12.84;76.82
66019;HTU21D;52787;51.084;5.816;2023-04-12T09:21:31;13.10;76.88
66019;HTU21D;52787;51.084;5.816;2023-04-12T09:24:09;13.51;74.95
66019;HTU21D;52787;51.084;5.816;2023-04-12T09:26:38;13.83;73.40
66019;HTU21D;52787;51.084;5.816;2023-04-12T09:29:04;14.00;71.53
66019;HTU21D;52787;51.084;5.816;2023-04-12T09:31:30;14.12;70.96
66019;HTU21D;52787;51.084;5.816;2023-04-12T09:34:08;14.32;70.21
66019;HTU21D;52787;51.084;5.816;2023-04-12T09:36:39;14.35;69.38
66019;HTU21D;52787;51.084;5.816;2023-04-12T09:39:06;14.33;69.24
66019;HTU21D;52787;51.084;5.816;2023-04-12T09:41:32;14.43;69.51
66019;HTU21D;52787;51.084;5.816;2023-04-12T09:43:58;14.51;69.52
66019;HTU21D;52787;51.084;5.816;2023-04-12T09:46:26;14.68;68.91
66019;HTU21D;52787;51.084;5.816;2023-04-12T09:48:54;14.85;68.23
66019;HTU21D;52787;51.084;5.816;2023-04-12T09:51:28;15.03;66.90
66019;HTU21D;52787;51.084;5.816;2023-04-12T09:54:02;15.04;66.83
66019;HTU21D;52787;51.084;5.816;2023-04-12T09:56:30;15.14;65.68
66019;HTU21D;52787;51.084;5.816;2023-04-12T09:59:05;15.17;66.03
66019;HTU21D;52787;51.084;5.816;2023-04-12T10:01:38;15.19;65.82
66019;HTU21D;52787;51.084;5.816;2023-04-12T10:04:08;15.22;65.21
66019;HTU21D;52787;51.084;5.816;2023-04-12T10:06:35;15.23;64.63
66019;HTU21D;52787;51.084;5.816;2023-04-12T10:09:05;15.27;64.75
66019;HTU21D;52787;51.084;5.816;2023-04-12T10:11:33;15.26;64.66
66019;HTU21D;52787;51.084;5.816;2023-04-12T10:14:01;15.10;64.79
66019;HTU21D;52787;51.084;5.816;2023-04-12T10:16:29;14.94;63.66
66019;HTU21D;52787;51.084;5.816;2023-04-12T10:18:55;14.97;64.21
66019;HTU21D;52787;51.084;5.816;2023-04-12T10:21:22;14.99;64.61
66019;HTU21D;52787;51.084;5.816;2023-04-12T10:23:49;14.97;65.09
66019;HTU21D;52787;51.084;5.816;2023-04-12T10:26:16;15.04;65.15
66019;HTU21D;52787;51.084;5.816;2023-04-12T10:28:43;15.11;64.27
66019;HTU21D;52787;51.084;5.816;2023-04-12T10:31:31;15.31;63.62
66019;HTU21D;52787;51.084;5.816;2023-04-12T10:34:05;15.57;62.86
66019;HTU21D;52787;51.084;5.816;2023-04-12T10:36:50;15.88;62.60
66019;HTU21D;52787;51.084;5.816;2023-04-12T10:39:17;16.62;60.61
66019;HTU21D;52787;51.084;5.816;2023-04-12T10:44:48;17.69;51.34
66019;HTU21D;52787;51.084;5.816;2023-04-12T10:50:31;16.55;54.06
66019;HTU21D;52787;51.084;5.816;2023-04-12T10:55:51;15.47;56.58
66019;HTU21D;52787;51.084;5.816;2023-04-12T11:01:12;15.08;58.57
66019;HTU21D;52787;51.084;5.816;2023-04-12T11:04:08;15.10;59.80
66019;HTU21D;52787;51.084;5.816;2023-04-12T11:14:48;16.75;55.80
66019;HTU21D;52787;51.084;5.816;2023-04-12T11:19:49;18.61;49.68
66019;HTU21D;52787;51.084;5.816;2023-04-12T11:22:18;18.07;50.79
66019;HTU21D;52787;51.084;5.816;2023-04-12T11:24:54;17.66;51.49
66019;HTU21D;52787;51.084;5.816;2023-04-12T11:27:22;17.02;52.72
66019;HTU21D;52787;51.084;5.816;2023-04-12T11:29:57;16.36;54.21
66019;HTU21D;52787;51.084;5.816;2023-04-12T11:32:26;15.95;56.10
66019;HTU21D;52787;51.084;5.816;2023-04-12T11:34:55;15.58;57.12
66019;HTU21D;52787;51.084;5.816;2023-04-12T11:37:23;15.25;57.96
66019;HTU21D;52787;51.084;5.816;2023-04-12T11:39:54;14.81;58.35
66019;HTU21D;52787;51.084;5.816;2023-04-12T11:42:23;14.45;60.81
66019;HTU21D;52787;51.084;5.816;2023-04-12T11:44:51;14.10;60.57
66019;HTU21D;52787;51.084;5.816;2023-04-12T11:47:19;14.07;60.39
66019;HTU21D;52787;51.084;5.816;2023-04-12T11:49:54;14.08;59.71
66019;HTU21D;52787;51.084;5.816;2023-04-12T11:52:28;14.21;59.26
66019;HTU21D;52787;51.084;5.816;2023-04-12T11:54:55;14.62;58.83
66019;HTU21D;52787;51.084;5.816;2023-04-12T11:57:24;15.46;57.82
66019;HTU21D;52787;51.084;5.816;2023-04-12T11:59:50;16.21;55.05
66019;HTU21D;52787;51.084;5.816;2023-04-12T12:02:17;16.44;52.64
66019;HTU21D;52787;51.084;5.816;2023-04-12T12:04:47;16.64;53.76
66019;HTU21D;52787;51.084;5.816;2023-04-12T12:07:17;17.43;51.24
66019;HTU21D;52787;51.084;5.816;2023-04-12T12:09:44;18.26;49.27
66019;HTU21D;52787;51.084;5.816;2023-04-12T12:12:13;19.50;46.22
66019;HTU21D;52787;51.084;5.816;2023-04-12T12:14:43;19.74;44.66
66019;HTU21D;52787;51.084;5.816;2023-04-12T12:17:14;19.14;46.10
66019;HTU21D;52787;51.084;5.816;2023-04-12T12:19:43;18.41;47.66
66019;HTU21D;52787;51.084;5.816;2023-04-12T12:22:18;17.68;50.47
66019;HTU21D;52787;51.084;5.816;2023-04-12T12:24:55;16.67;49.85
66019;HTU21D;52787;51.084;5.816;2023-04-12T12:27:34;15.58;53.76
66019;HTU21D;52787;51.084;5.816;2023-04-12T12:30:02;14.78;56.29
66019;HTU21D;52787;51.084;5.816;2023-04-12T12:32:36;14.22;59.10
66019;HTU21D;52787;51.084;5.816;2023-04-12T12:35:11;13.79;61.30
66019;HTU21D;52787;51.084;5.816;2023-04-12T12:37:48;13.54;64.21
66019;HTU21D;52787;51.084;5.816;2023-04-12T12:40:18;13.27;66.53
66019;HTU21D;52787;51.084;5.816;2023-04-12T12:42:55;13.02;69.48
66019;HTU21D;52787;51.084;5.816;2023-04-12T12:45:22;12.74;71.33
66019;HTU21D;52787;51.084;5.816;2023-04-12T12:48:00;12.51;73.15
66019;HTU21D;52787;51.084;5.816;2023-04-12T12:50:32;12.37;73.86
66019;HTU21D;52787;51.084;5.816;2023-04-12T12:52:59;12.43;74.45
66019;HTU21D;52787;51.084;5.816;2023-04-12T12:55:26;12.63;74.73
66019;HTU21D;52787;51.084;5.816;2023-04-12T12:57:55;13.05;74.09
66019;HTU21D;52787;51.084;5.816;2023-04-12T13:00:23;13.65;72.16
66019;HTU21D;52787;51.084;5.816;2023-04-12T13:02:50;14.91;68.84
66019;HTU21D;52787;51.084;5.816;2023-04-12T13:05:17;17.07;62.72
66019;HTU21D;52787;51.084;5.816;2023-04-12T13:07:44;19.55;53.72
66019;HTU21D;52787;51.084;5.816;2023-04-12T13:10:11;21.15;47.42
66019;HTU21D;52787;51.084;5.816;2023-04-12T13:12:37;22.53;44.09
66019;HTU21D;52787;51.084;5.816;2023-04-12T13:15:03;23.70;41.25
66019;HTU21D;52787;51.084;5.816;2023-04-12T13:17:30;23.64;39.20
66019;HTU21D;52787;51.084;5.816;2023-04-12T13:19:56;22.13;42.75
66019;HTU21D;52787;51.084;5.816;2023-04-12T13:22:23;21.20;45.48
66019;HTU21D;52787;51.084;5.816;2023-04-12T13:24:49;20.58;45.95
66019;HTU21D;52787;51.084;5.816;2023-04-12T13:27:15;19.62;48.44
66019;HTU21D;52787;51.084;5.816;2023-04-12T13:29:42;18.69;49.71
66019;HTU21D;52787;51.084;5.816;2023-04-12T13:32:08;17.73;51.94
66019;HTU21D;52787;51.084;5.816;2023-04-12T13:34:34;16.98;54.42
66019;HTU21D;52787;51.084;5.816;2023-04-12T13:37:00;16.69;57.26
66019;HTU21D;52787;51.084;5.816;2023-04-12T13:39:26;17.25;55.17
66019;HTU21D;52787;51.084;5.816;2023-04-12T13:41:52;18.05;52.56
66019;HTU21D;52787;51.084;5.816;2023-04-12T13:44:18;17.67;53.03
66019;HTU21D;52787;51.084;5.816;2023-04-12T13:46:44;17.15;51.76
66019;HTU21D;52787;51.084;5.816;2023-04-12T13:49:10;16.71;49.95
66019;HTU21D;52787;51.084;5.816;2023-04-12T13:51:36;16.06;50.88
66019;HTU21D;52787;51.084;5.816;2023-04-12T13:54:02;15.51;52.19
66019;HTU21D;52787;51.084;5.816;2023-04-12T13:56:27;15.48;52.62
66019;HTU21D;52787;51.084;5.816;2023-04-12T13:58:54;16.16;51.90
66019;HTU21D;52787;51.084;5.816;2023-04-12T14:01:20;17.49;47.61
66019;HTU21D;52787;51.084;5.816;2023-04-12T14:03:47;18.51;45.48
66019;HTU21D;52787;51.084;5.816;2023-04-12T14:06:13;18.88;42.91
66019;HTU21D;52787;51.084;5.816;2023-04-12T14:08:39;19.08;43.43
66019;HTU21D;52787;51.084;5.816;2023-04-12T14:11:04;18.50;43.71
66019;HTU21D;52787;51.084;5.816;2023-04-12T14:13:31;17.33;44.58
66019;HTU21D;52787;51.084;5.816;2023-04-12T14:15:57;16.48;48.52
66019;HTU21D;52787;51.084;5.816;2023-04-12T14:18:23;15.54;51.49
66019;HTU21D;52787;51.084;5.816;2023-04-12T14:20:52;14.78;54.46
66019;HTU21D;52787;51.084;5.816;2023-04-12T14:23:20;14.22;56.65
66019;HTU21D;52787;51.084;5.816;2023-04-12T14:25:51;13.95;59.07
66019;HTU21D;52787;51.084;5.816;2023-04-12T14:28:18;14.44;59.57
66019;HTU21D;52787;51.084;5.816;2023-04-12T14:30:55;15.84;57.12
66019;HTU21D;52787;51.084;5.816;2023-04-12T14:33:23;17.67;50.12
66019;HTU21D;52787;51.084;5.816;2023-04-12T14:35:49;19.29;45.57
66019;HTU21D;52787;51.084;5.816;2023-04-12T14:38:15;20.55;41.29
66019;HTU21D;52787;51.084;5.816;2023-04-12T14:40:41;21.38;39.27
66019;HTU21D;52787;51.084;5.816;2023-04-12T14:43:07;21.06;38.02
66019;HTU21D;52787;51.084;5.816;2023-04-12T14:45:35;20.13;42.21
66019;HTU21D;52787;51.084;5.816;2023-04-12T14:48:02;20.16;42.45
66019;HTU21D;52787;51.084;5.816;2023-04-12T14:50:27;19.79;42.48
66019;HTU21D;52787;51.084;5.816;2023-04-12T14:52:53;18.79;43.48
66019;HTU21D;52787;51.084;5.816;2023-04-12T14:55:19;17.68;46.52
66019;HTU21D;52787;51.084;5.816;2023-04-12T14:57:45;16.84;49.01
66019;HTU21D;52787;51.084;5.816;2023-04-12T15:00:11;16.17;48.49
66019;HTU21D;52787;51.084;5.816;2023-04-12T15:02:39;15.48;50.76
66019;HTU21D;52787;51.084;5.816;2023-04-12T15:05:06;14.86;53.66
66019;HTU21D;52787;51.084;5.816;2023-04-12T15:07:33;14.49;55.92
66019;HTU21D;52787;51.084;5.816;2023-04-12T15:10:00;14.22;54.23
66019;HTU21D;52787;51.084;5.816;2023-04-12T15:12:26;14.10;54.20
66019;HTU21D;52787;51.084;5.816;2023-04-12T15:14:58;13.99;55.34
66019;HTU21D;52787;51.084;5.816;2023-04-12T15:17:25;13.88;56.03
66019;HTU21D;52787;51.084;5.816;2023-04-12T15:19:51;13.77;54.98
66019;HTU21D;52787;51.084;5.816;2023-04-12T15:22:17;13.70;53.92
66019;HTU21D;52787;51.084;5.816;2023-04-12T15:24:42;13.65;53.37
66019;HTU21D;52787;51.084;5.816;2023-04-12T15:27:08;13.59;54.13
66019;HTU21D;52787;51.084;5.816;2023-04-12T15:29:34;13.62;53.93
66019;HTU21D;52787;51.084;5.816;2023-04-12T15:32:00;13.71;53.22
66019;HTU21D;52787;51.084;5.816;2023-04-12T15:34:26;13.85;53.39
66019;HTU21D;52787;51.084;5.816;2023-04-12T15:36:53;13.98;52.14
66019;HTU21D;52787;51.084;5.816;2023-04-12T15:39:19;13.89;47.38
66019;HTU21D;52787;51.084;5.816;2023-04-12T15:41:45;13.84;48.61
66019;HTU21D;52787;51.084;5.816;2023-04-12T15:44:11;13.86;48.28
66019;HTU21D;52787;51.084;5.816;2023-04-12T15:46:39;14.08;47.73
66019;HTU21D;52787;51.084;5.816;2023-04-12T15:49:06;14.27;47.44
66019;HTU21D;52787;51.084;5.816;2023-04-12T15:51:32;14.66;46.80
66019;HTU21D;52787;51.084;5.816;2023-04-12T15:54:00;15.02;45.22